Time;durP1;ratioP1;P1;durP2;ratioP2;P2;SDS_P1;SDS_P2;PMS_P1;PMS_P2;Temp;Humidity;BMP_temperature;BMP_pressure;BME280_temperature;BME280_humidity;BME280_pressure;Samples;Min_cycle;Max_cycle;Signal;HPM_P1;HPM_P2
2021/10/31 00:01:32;;;;;;;21.92;17.08;;;;;;;;;;5018715;28;20034;-81
2021/10/31 00:03:58;;;;;;;27.00;17.90;;;;;;;;;;5018725;28;20037;-82
2021/10/31 00:06:24;;;;;;;21.17;15.63;;;;;;;;;;5018301;28;20022;-81
2021/10/31 00:08:50;;;;;;;21.55;15.45;;;;;;;;;;5018847;28;20080;-81
2021/10/31 00:11:17;;;;;;;20.48;14.63;;;;;;;;;;5017664;28;20021;-81
2021/10/31 00:13:43;;;;;;;19.00;14.80;;;;;;;;;;5017504;28;20049;-82
2021/10/31 00:16:09;;;;;;;21.90;15.13;;;;;;;;;;5018326;28;20026;-81
2021/10/31 00:18:35;;;;;;;19.92;14.65;;;;;;;;;;5017612;28;20072;-81
2021/10/31 00:21:01;;;;;;;20.38;14.65;;;;;;;;;;5017770;28;20029;-81
2021/10/31 00:23:27;;;;;;;22.17;15.32;;;;;;;;;;5017469;28;20030;-82
2021/10/31 00:25:53;;;;;;;20.60;14.68;;;;;;;;;;5018217;28;20037;-81
2021/10/31 00:28:19;;;;;;;18.63;14.05;;;;;;;;;;5017802;28;20262;-82
2021/10/31 00:30:45;;;;;;;20.58;15.15;;;10.60;99.90;;;;;;5007894;28;20109;-81
2021/10/31 00:33:11;;;;;;;16.65;13.50;;;8.00;99.90;;;;;;5007245;28;20053;-82
2021/10/31 00:35:37;;;;;;;20.95;14.07;;;8.00;99.90;;;;;;5033181;28;20030;-82
2021/10/31 00:38:03;;;;;;;22.15;14.00;;;8.10;99.90;;;;;;5017576;28;20471;-81
2021/10/31 00:40:31;;;;;;;18.42;14.63;;;9.00;99.90;;;;;;5016676;28;20026;-81
2021/10/31 00:42:57;;;;;;;19.42;14.20;;;8.00;99.90;;;;;;5017125;28;20041;-81
2021/10/31 00:45:22;;;;;;;21.65;14.15;;;7.80;99.90;;;;;;5017201;28;20021;-80
2021/10/31 00:47:49;;;;;;;23.17;14.43;;;8.10;99.90;;;;;;5018409;28;20041;-81
2021/10/31 00:50:18;;;;;;;22.70;15.13;;;8.50;99.90;;;;;;5017462;28;20022;-81
2021/10/31 00:52:43;;;;;;;20.35;14.10;;;8.10;99.90;;;;;;5033114;28;20034;-80
2021/10/31 00:55:09;;;;;;;21.15;14.38;;;8.90;99.90;;;;;;5018255;28;20113;-81
2021/10/31 00:57:36;;;;;;;23.65;14.95;;;7.60;99.90;;;;;;5017512;28;20029;-81
2021/10/31 01:00:04;;;;;;;30.35;20.08;;;7.50;99.90;;;;;;5032782;28;20069;-81
2021/10/31 01:02:30;;;;;;;28.30;17.75;;;7.50;99.90;;;;;;5032530;28;20285;-81
2021/10/31 01:04:59;;;;;;;29.92;19.98;;;8.50;99.90;;;;;;5018433;28;20056;-81
2021/10/31 01:07:42;;;;;;;28.25;18.48;;;7.80;99.90;;;;;;5033335;28;20045;-80
2021/10/31 01:10:21;;;;;;;27.00;17.63;;;7.60;99.90;;;;;;5022618;28;20086;-79
2021/10/31 01:12:50;;;;;;;25.20;17.17;;;8.40;99.90;;;;;;5024845;28;20030;-80
2021/10/31 01:15:20;;;;;;;25.92;18.65;;;7.70;99.90;;;;;;5025743;28;20048;-80
2021/10/31 01:17:55;;;;;;;24.13;17.55;;;7.70;99.90;;;;;;5023353;28;20569;-81
2021/10/31 01:20:29;;;;;;;27.65;18.77;;;7.70;99.90;;;;;;5034814;28;20600;-81
2021/10/31 01:23:24;;;;;;;27.15;18.48;;;7.70;99.90;;;;;;5024387;28;20026;-80
2021/10/31 01:26:37;;;;;;;27.35;18.27;;;7.70;99.90;;;;;;5020891;28;20092;-80
2021/10/31 01:29:19;;;;;;;24.02;15.40;;;7.60;99.90;;;;;;5021565;28;20046;-80
2021/10/31 01:32:22;;;;;;;30.02;19.23;;;7.40;99.90;;;;;;5026677;28;20033;-80
2021/10/31 01:35:19;;;;;;;27.25;19.13;;;7.70;99.90;;;;;;4993004;28;20030;-80
2021/10/31 01:38:22;;;;;;;29.70;19.73;;;9.40;99.90;;;;;;5026303;28;20021;-80
2021/10/31 01:40:56;;;;;;;31.45;20.08;;;7.90;99.90;;;;;;5008931;28;20402;-80
2021/10/31 01:43:50;;;;;;;28.27;18.90;;;9.30;99.90;;;;;;5012003;28;20033;-80
2021/10/31 01:46:27;;;;;;;34.42;21.92;;;7.80;99.90;;;;;;5027641;28;20108;-80
2021/10/31 01:49:20;;;;;;;40.15;24.67;;;7.90;99.90;;;;;;5012207;28;20072;-80
2021/10/31 01:51:59;;;;;;;43.58;24.45;;;8.00;99.90;;;;;;5010921;28;20172;-80
2021/10/31 01:54:46;;;;;;;38.72;24.63;;;8.70;99.90;;;;;;5010447;28;20094;-80
2021/10/31 01:57:18;;;;;;;36.33;23.33;;;8.70;99.90;;;;;;5011921;28;20080;-80
2021/10/31 01:59:48;;;;;;;36.85;22.10;;;9.60;99.90;;;;;;5010445;28;20040;-79
2021/10/31 02:02:17;;;;;;;35.75;23.23;;;8.30;99.90;;;;;;5012706;28;20033;-79
2021/10/31 02:04:46;;;;;;;31.88;22.40;;;8.30;99.90;;;;;;5010239;28;20106;-79
2021/10/31 02:07:16;;;;;;;31.35;21.60;;;8.40;99.90;;;;;;5011371;28;20029;-79
2021/10/31 02:09:44;;;;;;;29.27;21.60;;;9.70;99.90;;;;;;5010679;28;20041;-81
2021/10/31 02:12:15;;;;;;;28.88;21.17;;;9.70;99.90;;;;;;5030909;28;20029;-81
2021/10/31 02:14:43;;;;;;;30.27;21.45;;;8.50;99.90;;;;;;5022073;28;20472;-81
2021/10/31 02:17:09;;;;;;;29.10;20.40;;;8.40;99.90;;;;;;5020430;28;20021;-81
2021/10/31 02:19:39;;;;;;;29.30;20.55;;;8.60;99.90;;;;;;5024162;28;20037;-81
2021/10/31 02:22:08;;;;;;;36.13;21.17;;;9.10;99.90;;;;;;5016090;28;20033;-81
2021/10/31 02:24:35;;;;;;;30.65;20.85;;;8.60;99.90;;;;;;5014117;28;20021;-81
2021/10/31 02:27:14;;;;;;;29.63;20.75;;;9.90;99.90;;;;;;5010918;28;20025;-81
2021/10/31 02:29:45;;;;;;;33.22;19.92;;;8.40;99.90;;;;;;5012690;28;20018;-81
2021/10/31 02:32:11;;;;;;;35.40;20.40;;;8.30;99.90;;;;;;5013671;28;20041;-81
2021/10/31 02:34:37;;;;;;;31.35;20.90;;;8.40;99.90;;;;;;5012317;28;20026;-81
2021/10/31 02:37:03;;;;;;;31.88;21.05;;;9.90;99.90;;;;;;5012087;28;20042;-81
2021/10/31 02:39:28;;;;;;;29.02;19.98;;;8.50;99.90;;;;;;5011337;28;20030;-81
2021/10/31 02:41:54;;;;;;;34.38;21.10;;;9.40;99.90;;;;;;5028500;28;20041;-81
2021/10/31 02:44:19;;;;;;;37.22;22.88;;;8.40;99.90;;;;;;5013690;28;20045;-81
2021/10/31 02:46:46;;;;;;;29.67;20.25;;;8.60;99.90;;;;;;5013353;28;20592;-81
2021/10/31 02:49:12;;;;;;;29.25;18.02;;;8.60;99.90;;;;;;5028042;28;20038;-81
2021/10/31 02:51:48;;;;;;;29.90;18.70;;;9.60;99.90;;;;;;5012208;28;20669;-81
2021/10/31 02:54:28;;;;;;;25.00;17.73;;;8.50;99.90;;;;;;4993653;28;20548;-81
2021/10/31 02:57:14;;;;;;;25.92;17.75;;;8.30;99.90;;;;;;4995909;28;20025;-81
2021/10/31 02:59:51;;;;;;;27.23;17.35;;;9.80;99.90;;;;;;5026673;28;20030;-81
2021/10/31 03:02:18;;;;;;;25.25;16.92;;;8.00;99.90;;;;;;4993669;28;20121;-81
2021/10/31 03:04:45;;;;;;;23.10;16.70;;;9.20;99.90;;;;;;5028661;28;20072;-81
2021/10/31 03:07:14;;;;;;;26.90;18.35;;;8.00;99.90;;;;;;5031757;28;20398;-81
2021/10/31 03:09:40;;;;;;;25.80;18.40;;;8.00;99.90;;;;;;5016255;28;20507;-81
2021/10/31 03:12:08;;;;;;;31.80;20.35;;;9.20;99.90;;;;;;5015229;28;20064;-81
2021/10/31 03:14:35;;;;;;;33.28;20.23;;;7.90;99.90;;;;;;5040566;23;20044;-76
2021/10/31 03:17:00;;;;;;;24.92;18.15;;;9.70;99.90;;;;;;5056757;28;20049;-80
2021/10/31 03:19:27;;;;;;;27.92;18.73;;;8.00;99.90;;;;;;5054951;28;20017;-80
2021/10/31 03:21:52;;;;;;;27.65;18.23;;;7.90;99.90;;;;;;5037599;28;20041;-80
2021/10/31 03:24:18;;;;;;;31.55;20.52;;;9.20;99.90;;;;;;5055310;28;20022;-81
2021/10/31 03:26:44;;;;;;;25.40;17.63;;;9.70;99.90;;;;;;5038067;28;20055;-82
2021/10/31 03:29:10;;;;;;;27.10;17.23;;;8.50;99.90;;;;;;5037074;28;20038;-79
2021/10/31 03:31:36;;;;;;;26.35;16.75;;;8.70;99.90;;;;;;5021228;28;20025;-80
2021/10/31 03:34:01;;;;;;;27.05;16.73;;;9.10;99.90;;;;;;5018808;28;20032;-80
2021/10/31 03:36:27;;;;;;;25.48;16.70;;;7.90;99.90;;;;;;5036059;28;20124;-79
2021/10/31 03:38:53;;;;;;;26.83;18.27;;;7.90;99.90;;;;;;5035198;28;20021;-79
2021/10/31 03:41:18;;;;;;;28.30;18.60;;;8.00;99.90;;;;;;5035225;28;20029;-80
2021/10/31 03:43:44;;;;;;;27.60;17.70;;;8.90;99.90;;;;;;5018756;28;20032;-80
2021/10/31 03:46:10;;;;;;;31.85;19.27;;;9.20;99.90;;;;;;5003323;28;20414;-81
2021/10/31 03:48:36;;;;;;;30.20;18.70;;;8.00;99.90;;;;;;5036471;28;20049;-78
2021/10/31 03:51:02;;;;;;;25.42;17.60;;;9.10;99.90;;;;;;5018200;28;20029;-79
2021/10/31 03:53:27;;;;;;;30.35;18.67;;;8.10;99.90;;;;;;5036627;28;20532;-78
2021/10/31 03:55:53;;;;;;;25.10;17.38;;;8.00;99.90;;;;;;5035779;28;20033;-79
2021/10/31 03:58:19;;;;;;;26.65;17.90;;;8.20;99.90;;;;;;5034887;28;20088;-80
2021/10/31 04:00:44;;;;;;;27.85;17.85;;;8.10;99.90;;;;;;5018487;28;20033;-81
2021/10/31 04:03:11;;;;;;;24.85;16.42;;;9.50;99.90;;;;;;5034269;28;20026;-80
2021/10/31 04:05:38;;;;;;;27.70;17.10;;;8.40;99.90;;;;;;5034853;28;20021;-80
2021/10/31 04:08:04;;;;;;;24.98;17.65;;;8.10;99.90;;;;;;5018748;28;20030;-80
2021/10/31 04:10:30;;;;;;;22.55;16.55;;;8.10;99.90;;;;;;5035619;28;20026;-79
2021/10/31 04:12:55;;;;;;;22.35;15.25;;;8.10;99.90;;;;;;5037273;28;20549;-77
2021/10/31 04:15:23;;;;;;;21.70;15.05;;;8.70;99.90;;;;;;5034190;28;20229;-81
2021/10/31 04:17:49;;;;;;;20.60;15.20;;;8.00;99.90;;;;;;5035977;28;20112;-80
2021/10/31 04:20:15;;;;;;;22.52;15.27;;;8.10;99.90;;;;;;5035102;28;20505;-79
2021/10/31 04:22:41;;;;;;;25.55;16.48;;;8.10;99.90;;;;;;5035059;28;20052;-81
2021/10/31 04:25:08;;;;;;;25.45;18.00;;;9.40;99.90;;;;;;5017918;28;20038;-77
2021/10/31 04:27:34;;;;;;;25.70;17.05;;;8.10;99.90;;;;;;5034340;28;20041;-80
2021/10/31 04:29:59;;;;;;;23.55;16.75;;;9.40;99.90;;;;;;5017262;28;20091;-80
2021/10/31 04:32:25;;;;;;;26.10;17.58;;;8.90;99.90;;;;;;5050986;28;20108;-78
2021/10/31 04:34:51;;;;;;;24.48;16.50;;;8.40;99.90;;;;;;5051326;28;20041;-80
2021/10/31 04:37:17;;;;;;;21.17;15.35;;;9.40;99.90;;;;;;5035970;28;20053;-80
2021/10/31 04:39:44;;;;;;;22.17;15.23;;;8.40;99.90;;;;;;5018214;28;20037;-81
2021/10/31 04:42:11;;;;;;;25.13;16.80;;;8.30;99.90;;;;;;5036685;28;20024;-79
2021/10/31 04:44:37;;;;;;;20.65;15.80;;;8.10;99.90;;;;;;5035538;28;20466;-80
2021/10/31 04:47:04;;;;;;;22.05;15.23;;;8.80;99.90;;;;;;5019068;28;20044;-79
2021/10/31 04:49:30;;;;;;;22.33;15.25;;;8.40;99.90;;;;;;5034842;28;20026;-81
2021/10/31 04:51:57;;;;;;;22.08;15.55;;;8.00;99.90;;;;;;5034252;28;20033;-79
2021/10/31 04:54:23;;;;;;;21.80;15.95;;;8.50;99.90;;;;;;5041449;28;20044;-78
2021/10/31 04:56:49;;;;;;;22.60;15.07;;;9.70;99.90;;;;;;5044914;28;20023;-80
2021/10/31 04:59:15;;;;;;;25.92;17.30;;;9.10;99.90;;;;;;5034780;28;20029;-78
2021/10/31 05:01:40;;;;;;;23.27;16.27;;;8.30;99.90;;;;;;5033345;28;20033;-80
2021/10/31 05:04:06;;;;;;;21.05;14.88;;;8.20;99.90;;;;;;5050392;28;20025;-80
2021/10/31 05:06:32;;;;;;;21.27;14.57;;;8.20;99.90;;;;;;5035001;28;20026;-80
2021/10/31 05:08:57;;;;;;;17.95;13.50;;;8.40;99.90;;;;;;5016927;28;20083;-79
2021/10/31 05:11:23;;;;;;;26.50;15.35;;;8.20;99.90;;;;;;5034081;28;20047;-78
2021/10/31 05:13:49;;;;;;;24.33;16.23;;;10.00;99.90;;;;;;5033272;28;20051;-81
2021/10/31 05:16:15;;;;;;;24.20;16.67;;;8.80;99.90;;;;;;5033762;28;20057;-81
2021/10/31 05:18:41;;;;;;;23.48;16.25;;;8.10;99.90;;;;;;5035087;28;20045;-81
2021/10/31 05:21:07;;;;;;;25.05;16.65;;;9.30;99.90;;;;;;5035043;28;20036;-81
2021/10/31 05:23:33;;;;;;;25.98;16.67;;;9.30;99.90;;;;;;5033979;28;20034;-78
2021/10/31 05:25:58;;;;;;;25.95;16.05;;;8.20;99.90;;;;;;5017549;28;20649;-81
2021/10/31 05:28:25;;;;;;;24.52;15.85;;;8.20;99.90;;;;;;5016803;28;20057;-79
2021/10/31 05:30:52;;;;;;;24.58;16.48;;;9.20;99.90;;;;;;5034495;28;20018;-78
2021/10/31 05:33:19;;;;;;;22.33;15.73;;;9.20;99.90;;;;;;5050059;28;20040;-81
2021/10/31 05:35:45;;;;;;;28.00;17.30;;;8.40;99.90;;;;;;5033713;28;20021;-82
2021/10/31 05:38:13;;;;;;;23.92;15.95;;;9.90;99.90;;;;;;5035533;28;20052;-81
2021/10/31 05:40:38;;;;;;;26.38;16.48;;;9.20;99.90;;;;;;5034578;28;20120;-81
2021/10/31 05:43:04;;;;;;;27.60;17.75;;;10.20;99.90;;;;;;5018411;28;20037;-82
2021/10/31 05:45:30;;;;;;;26.20;17.40;;;9.10;99.90;;;;;;5033582;28;20026;-80
2021/10/31 05:47:56;;;;;;;25.05;16.98;;;8.70;99.90;;;;;;5034411;28;20025;-82
2021/10/31 05:50:22;;;;;;;22.65;16.23;;;10.20;99.90;;;;;;5017825;28;20030;-78
2021/10/31 05:52:47;;;;;;;23.58;15.68;;;8.60;99.90;;;;;;5033689;28;20036;-81
2021/10/31 05:55:15;;;;;;;20.85;15.52;;;8.90;99.90;;;;;;5033331;28;20018;-82
2021/10/31 05:57:42;;;;;;;24.33;15.77;;;10.30;99.90;;;;;;5033522;28;20021;-80
2021/10/31 06:00:11;;;;;;;21.33;15.07;;;9.00;99.90;;;;;;5033188;28;20101;-81
2021/10/31 06:02:37;;;;;;;23.38;15.70;;;8.60;99.90;;;;;;5035932;28;20497;-81
2021/10/31 06:05:04;;;;;;;20.55;14.23;;;9.30;99.90;;;;;;5017580;28;20060;-81
2021/10/31 06:07:31;;;;;;;18.98;13.43;;;8.60;99.90;;;;;;5032887;28;20029;-82
2021/10/31 06:09:57;;;;;;;20.92;14.02;;;8.90;99.90;;;;;;5030805;28;20215;-79
2021/10/31 06:12:23;;;;;;;20.50;14.15;;;8.50;99.90;;;;;;5034854;28;20060;-82
2021/10/31 06:14:49;;;;;;;22.20;14.57;;;9.70;99.90;;;;;;5032030;28;20466;-82
2021/10/31 06:17:15;;;;;;;21.17;15.15;;;8.40;99.90;;;;;;5032859;28;20633;-79
2021/10/31 06:19:41;;;;;;;18.65;14.40;;;8.30;99.90;;;;;;5015217;28;20072;-79
2021/10/31 06:22:07;;;;;;;18.70;13.55;;;8.20;99.90;;;;;;5031606;28;20040;-82
2021/10/31 06:24:32;;;;;;;19.63;13.73;;;9.70;99.90;;;;;;5032216;28;20034;-80
2021/10/31 06:26:58;;;;;;;18.40;13.40;;;8.30;99.90;;;;;;5031653;28;20029;-82
2021/10/31 06:29:24;;;;;;;19.95;14.48;;;8.00;99.90;;;;;;5014501;28;20167;-79
2021/10/31 06:31:50;;;;;;;19.48;14.70;;;8.00;99.90;;;;;;5033355;28;20497;-81
2021/10/31 06:34:16;;;;;;;21.13;15.50;;;8.20;99.90;;;;;;5031399;28;20029;-84
2021/10/31 06:36:43;;;;;;;20.25;15.75;;;8.00;99.90;;;;;;5032664;28;20039;-82
2021/10/31 06:39:08;;;;;;;24.88;19.83;;;8.10;99.90;;;;;;5032570;28;20033;-81
2021/10/31 06:41:34;;;;;;;26.52;18.65;;;8.10;99.90;;;;;;5031112;28;20030;-81
2021/10/31 06:44:00;;;;;;;24.95;19.05;;;8.00;99.90;;;;;;5016628;28;20453;-82
2021/10/31 06:46:25;;;;;;;32.95;22.95;;;8.00;99.90;;;;;;5013887;28;20021;-82
2021/10/31 06:48:52;;;;;;;39.15;25.08;;;8.20;99.90;;;;;;5032267;28;20561;-81
2021/10/31 06:51:19;;;;;;;33.20;22.40;;;9.80;99.90;;;;;;5034763;28;20018;-82
2021/10/31 06:53:45;;;;;;;32.10;21.52;;;8.30;99.90;;;;;;5032186;28;20564;-81
2021/10/31 06:56:11;;;;;;;33.67;21.70;;;8.20;99.90;;;;;;5034518;28;20056;-81
2021/10/31 06:58:37;;;;;;;27.35;19.15;;;8.30;99.90;;;;;;5023327;28;20025;-79
2021/10/31 07:01:03;;;;;;;26.40;19.05;;;8.40;99.90;;;;;;5048077;28;20084;-80
2021/10/31 07:03:29;;;;;;;22.00;16.98;;;10.40;99.90;;;;;;5050340;28;20018;-80
2021/10/31 07:05:55;;;;;;;24.83;17.00;;;9.10;99.90;;;;;;5048401;28;20132;-80
2021/10/31 07:08:21;;;;;;;30.38;21.90;;;10.10;99.90;;;;;;5027129;28;20061;-79
2021/10/31 07:10:47;;;;;;;26.13;18.95;;;8.60;99.90;;;;;;5030900;28;20057;-81
2021/10/31 07:13:12;;;;;;;25.77;18.33;;;10.10;99.90;;;;;;5032197;28;20048;-81
2021/10/31 07:15:38;;;;;;;24.67;17.40;;;9.80;99.90;;;;;;5034112;28;20089;-81
2021/10/31 07:18:04;;;;;;;25.50;16.38;;;10.80;99.90;;;;;;5021645;28;20033;-81
2021/10/31 07:20:31;;;;;;;28.10;19.55;;;11.00;99.90;;;;;;5020464;28;20083;-80
2021/10/31 07:22:57;;;;;;;29.27;20.38;;;9.40;99.90;;;;;;5039797;28;20044;-80
2021/10/31 07:25:24;;;;;;;25.27;19.35;;;9.90;99.90;;;;;;5018055;28;20029;-81
2021/10/31 07:27:51;;;;;;;26.50;19.27;;;10.00;99.90;;;;;;5036015;28;20025;-80
2021/10/31 07:30:18;;;;;;;37.95;30.42;;;9.90;99.90;;;;;;5037574;28;20095;-81
2021/10/31 07:32:43;;;;;;;22.73;16.77;;;10.90;99.90;;;;;;5050865;28;20030;-81
2021/10/31 07:35:10;;;;;;;23.45;16.23;;;10.00;99.90;;;;;;5034554;28;20063;-81
2021/10/31 07:37:36;;;;;;;20.45;15.40;;;11.70;99.90;;;;;;5035264;28;20036;-80
2021/10/31 07:40:05;;;;;;;20.80;14.82;;;10.60;99.90;;;;;;5035086;28;20025;-80
2021/10/31 07:42:31;;;;;;;19.60;14.75;;;;;;;;;;5018946;28;20052;-81
2021/10/31 07:44:58;;;;;;;16.08;11.80;;;;;;;;;;5034159;28;20055;-81
2021/10/31 07:47:25;;;;;;;12.75;9.80;;;;;;;;;;5034561;28;20052;-80
2021/10/31 07:49:51;;;;;;;9.32;8.30;;;;;;;;;;5034980;28;20032;-81
2021/10/31 07:52:20;;;;;;;11.15;7.47;;;;;;;;;;5041839;28;20025;-81
2021/10/31 07:54:47;;;;;;;8.43;7.32;;;;;;;;;;5038583;28;20101;-79
2021/10/31 07:57:14;;;;;;;9.40;5.63;;;;;;;;;;5041519;28;20044;-81
2021/10/31 07:59:40;;;;;;;10.90;5.63;;;;;;;;;;5041104;28;20029;-81
2021/10/31 08:02:06;;;;;;;9.02;4.78;;;;;;;;;;5043479;28;20092;-80
2021/10/31 08:04:32;;;;;;;5.90;4.30;;;;;;;;;;5040794;28;20029;-81
2021/10/31 08:06:58;;;;;;;5.97;4.30;;;;;;;;;;5038043;28;20025;-81
2021/10/31 08:09:25;;;;;;;5.10;3.92;;;;;;;;;;5039035;28;20117;-81
2021/10/31 08:11:51;;;;;;;5.53;4.00;;;;;;;;;;5038635;28;20485;-81
2021/10/31 08:14:17;;;;;;;8.73;4.15;;;;;;;;;;5039943;28;20037;-81
2021/10/31 08:16:43;;;;;;;5.20;3.75;;;;;;;;;;5039665;28;20041;-81
2021/10/31 08:19:09;;;;;;;4.78;3.80;;;;;;;;;;5023278;28;20032;-81
2021/10/31 08:21:36;;;;;;;4.93;3.75;;;;;;;;;;5021792;28;20112;-80
2021/10/31 08:24:02;;;;;;;6.10;3.70;;;;;;;;;;5040354;28;20037;-81
2021/10/31 08:26:28;;;;;;;10.40;2.83;;;;;;;;;;5019715;28;20502;-81
2021/10/31 08:28:55;;;;;;;4.95;2.63;;;;;;;;;;5038637;28;20064;-80
2021/10/31 08:31:27;;;;;;;4.22;2.35;;;;;;;;;;5037899;28;20026;-80
2021/10/31 08:34:01;;;;;;;2.67;2.00;;;;;;;;;;5021286;28;20094;-82
2021/10/31 08:36:27;;;;;;;3.35;2.22;;;;;;;;;;5037842;28;20029;-81
2021/10/31 08:38:54;;;;;;;5.15;2.20;;;;;;;;;;5042701;28;20033;-80
2021/10/31 08:41:21;;;;;;;2.75;2.00;;;;;;;;;;5041755;28;20021;-81
2021/10/31 08:43:47;;;;;;;3.53;1.45;;;;;;;;;;5038255;28;20097;-81
2021/10/31 08:46:14;;;;;;;3.00;1.48;;;10.60;99.90;;;;;;5038024;28;20036;-81
2021/10/31 08:48:40;;;;;;;5.18;1.80;;;;;;;;;;5038171;28;20687;-82
2021/10/31 08:51:06;;;;;;;3.20;1.60;;;;;;;;;;5036775;28;20097;-81
2021/10/31 08:53:33;;;;;;;2.35;1.60;;;;;;;;;;5036626;28;20036;-81
2021/10/31 08:55:59;;;;;;;2.35;1.65;;;;;;;;;;5036905;28;20025;-81
2021/10/31 08:58:26;;;;;;;2.88;1.95;;;;;;;;;;5038135;28;20025;-80
2021/10/31 09:00:52;;;;;;;2.92;1.73;;;;;;;;;;5012994;28;20178;-81
2021/10/31 09:03:19;;;;;;;3.83;1.90;;;;;;;;;;5037715;28;20025;-81
2021/10/31 09:05:45;;;;;;;2.97;1.60;;;;;;;;;;5039815;28;20467;-82
2021/10/31 09:08:11;;;;;;;3.83;1.70;;;;;;;;;;5037232;28;20025;-81
2021/10/31 09:10:38;;;;;;;2.95;1.90;;;;;;;;;;5037901;28;20029;-81
2021/10/31 09:13:05;;;;;;;5.65;2.17;;;;;;;;;;5037871;28;20115;-81
2021/10/31 09:15:31;;;;;;;4.50;2.25;;;;;;;;;;5020514;28;20033;-80
2021/10/31 09:17:58;;;;;;;6.53;2.40;;;;;;;;;;5038115;28;20029;-79
2021/10/31 09:20:25;;;;;;;3.22;2.40;;;;;;;;;;5037323;28;20040;-80
2021/10/31 09:22:53;;;;;;;2.85;2.25;;;;;;;;;;5035710;28;20080;-80
2021/10/31 09:25:20;;;;;;;4.95;2.25;;;;;;;;;;5034574;28;20030;-80
2021/10/31 09:27:46;;;;;;;3.88;2.40;;;;;;;;;;5034929;28;20037;-80
2021/10/31 09:30:12;;;;;;;3.85;2.20;;;;;;;;;;5022845;28;20136;-81
2021/10/31 09:32:44;;;;;;;5.75;2.10;;;;;;;;;;5026167;28;20025;-80
2021/10/31 09:35:10;;;;;;;2.80;1.90;;;;;;;;;;5035361;28;20048;-83
2021/10/31 09:37:36;;;;;;;3.15;1.83;;;;;;;;;;5017813;28;20588;-80
2021/10/31 09:40:04;;;;;;;2.78;1.85;;;;;;;;;;5033435;28;20056;-79
2021/10/31 09:42:30;;;;;;;2.72;1.85;;;;;;;;;;5030898;28;20018;-80
2021/10/31 09:44:56;;;;;;;5.05;1.75;;;;;;;;;;5050680;28;20069;-79
2021/10/31 09:47:22;;;;;;;2.78;1.48;;;;;;;;;;5058921;23;20044;-81
2021/10/31 09:49:49;;;;;;;2.47;1.48;;;;;;;;;;5038024;28;20030;-85
2021/10/31 09:52:15;;;;;;;3.28;1.40;;;;;;;;;;5031039;28;20036;-84
2021/10/31 09:54:40;;;;;;;3.90;2.38;;;21.10;99.90;;;;;;5028623;28;20702;-85
2021/10/31 09:57:06;;;;;;;4.65;2.00;;;24.10;99.90;;;;;;5033374;28;20033;-85
2021/10/31 09:59:38;;;;;;;3.53;1.90;;;23.60;99.90;;;;;;5035310;28;20144;-83
2021/10/31 10:04:41;;;;;;;4.45;3.38;;;22.00;99.90;;;;;;5033209;28;20032;-85
2021/10/31 10:07:09;;;;;;;4.03;2.63;;;21.20;99.90;;;;;;5028730;28;20048;-84
2021/10/31 10:09:36;;;;;;;6.25;1.95;;;20.80;99.90;;;;;;5033259;28;20494;-83
2021/10/31 10:12:13;;;;;;;3.33;2.13;;;20.80;99.90;;;;;;5029846;28;20026;-85
2021/10/31 10:14:39;;;;;;;4.07;2.20;;;20.60;99.90;;;;;;5032495;28;20033;-84
2021/10/31 10:17:10;;;;;;;2.72;2.20;;;20.30;99.90;;;;;;5030827;28;20045;-86
2021/10/31 10:19:49;;;;;;;3.92;1.90;;;20.10;99.90;;;;;;5030999;28;20037;-82
2021/10/31 10:22:18;;;;;;;4.50;2.28;;;20.00;99.90;;;;;;5028885;28;20025;-83
2021/10/31 10:25:11;;;;;;;4.15;2.08;;;19.80;99.90;;;;;;5030414;28;20071;-85
2021/10/31 10:27:54;;;;;;;6.30;2.20;;;19.90;99.90;;;;;;5010540;28;20086;-85
2021/10/31 10:30:23;;;;;;;14.38;8.48;;;19.80;99.90;;;;;;5032722;28;20029;-84
2021/10/31 10:32:55;;;;;;;15.65;7.78;;;20.10;99.90;;;;;;5033745;28;20056;-84
2021/10/31 10:35:24;;;;;;;3.63;2.35;;;20.10;99.90;;;;;;5031745;28;20030;-85
2021/10/31 10:37:50;;;;;;;3.28;1.52;;;20.50;99.90;;;;;;5031945;28;20371;-84
2021/10/31 10:40:27;;;;;;;2.42;1.33;;;20.10;99.90;;;;;;5013906;28;20030;-84
2021/10/31 10:42:58;;;;;;;4.13;1.70;;;20.30;99.90;;;;;;5038806;28;20060;-84
2021/10/31 10:45:29;;;;;;;2.65;1.73;;;20.10;99.90;;;;;;5037207;28;20030;-84
2021/10/31 10:47:59;;;;;;;1.73;1.30;;;;;;;;;;5038469;28;20075;-85
2021/10/31 10:50:25;;;;;;;3.13;1.58;;;;;;;;;;5039241;28;20493;-84
2021/10/31 10:52:52;;;;;;;2.70;1.50;;;;;;;;;;5039732;28;20049;-84
2021/10/31 10:55:19;;;;;;;1.92;1.33;;;;;;;;;;5039177;28;20055;-84
2021/10/31 10:57:47;;;;;;;3.03;1.63;;;;;;;;;;5044402;28;20052;-84
2021/10/31 11:00:15;;;;;;;3.75;1.45;;;;;;;;;;5038084;28;20557;-83
2021/10/31 11:02:41;;;;;;;1.55;1.25;;;;;;;;;;5032604;28;20132;-86
2021/10/31 11:05:12;;;;;;;5.90;1.50;;;;;;;;;;5028566;28;20025;-85
2021/10/31 11:07:39;;;;;;;4.97;1.77;;;;;;;;;;5026917;28;20167;-86
2021/10/31 11:10:13;;;;;;;3.53;1.52;;;;;;;;;;5028698;28;20013;-85
2021/10/31 11:12:40;;;;;;;4.10;2.17;;;;;;;;;;5027987;28;20079;-85
2021/10/31 11:15:09;;;;;;;3.55;2.08;;;;;;;;;;5026677;28;20029;-86
2021/10/31 11:17:42;;;;;;;3.28;2.17;;;;;;;;;;5027529;28;20060;-84
2021/10/31 11:20:10;;;;;;;3.47;1.92;;;;;;;;;;5030627;28;20021;-84
2021/10/31 11:22:37;;;;;;;3.10;2.00;;;;;;;;;;5032664;28;20029;-85
2021/10/31 11:25:04;;;;;;;2.63;1.70;;;19.60;99.90;;;;;;5035324;28;20393;-85
2021/10/31 11:27:32;;;;;;;4.25;2.28;;;22.30;99.90;;;;;;5035236;28;20037;-85
2021/10/31 11:29:59;;;;;;;3.03;1.95;;;22.20;99.90;;;;;;5035286;28;20017;-86
2021/10/31 11:32:28;;;;;;;2.50;1.67;;;22.40;99.90;;;;;;5036908;28;20537;-85
2021/10/31 11:34:56;;;;;;;3.00;1.90;;;22.20;99.90;;;;;;5043511;28;20040;-84
2021/10/31 11:37:28;;;;;;;3.85;1.83;;;22.10;99.90;;;;;;5038736;28;20031;-85
2021/10/31 11:39:55;;;;;;;;;;;22.20;99.90;;;;;;5023273;28;20041;-86
2021/10/31 11:42:23;;;;;;;2.78;1.90;;;22.90;99.90;;;;;;5037355;28;19927;-85
2021/10/31 11:45:18;;;;;;;3.17;1.70;;;23.30;99.90;;;;;;5046434;28;20021;-84
2021/10/31 11:47:46;;;;;;;2.63;1.52;;;24.10;99.90;;;;;;5045867;28;20021;-85
2021/10/31 11:50:21;;;;;;;1.98;1.38;;;25.40;99.90;;;;;;5039918;28;20385;-86
2021/10/31 11:52:52;;;;;;;2.75;1.65;;;;;;;;;;5032423;28;20036;-84
2021/10/31 11:55:31;;;;;;;4.15;1.45;;;;;;;;;;5038084;28;20042;-85
2021/10/31 11:58:00;;;;;;;3.50;1.90;;;;;;;;;;5042225;28;20041;-85
2021/10/31 12:00:27;;;;;;;2.42;1.50;;;;;;;;;;5039577;28;20121;-85
2021/10/31 12:02:58;;;;;;;3.75;1.30;;;;;;;;;;5025177;28;20057;-85
2021/10/31 12:05:39;;;;;;;2.55;1.55;;;;;;;;;;5035842;28;20029;-84
2021/10/31 12:08:05;;;;;;;6.45;1.90;;;;;;;;;;5035812;28;20079;-84
2021/10/31 12:10:33;;;;;;;2.45;1.70;;;;;;;;;;5037234;28;20481;-85
2021/10/31 12:13:18;;;;;;;2.40;1.40;;;;;;;;;;5036744;28;20040;-84
2021/10/31 12:16:08;;;;;;;2.53;1.48;;;;;;;;;;5038404;28;20057;-85
2021/10/31 12:18:51;;;;;;;3.55;1.50;;;;;;;;;;5037653;28;20025;-84
2021/10/31 12:21:18;;;;;;;2.10;1.38;;;;;;;;;;5037425;28;20040;-84
2021/10/31 12:23:52;;;;;;;4.10;1.42;;;;;;;;;;5039013;28;20103;-85
2021/10/31 12:26:19;;;;;;;4.43;1.15;;;;;;;;;;5034545;28;20405;-83
2021/10/31 12:28:45;;;;;;;1.30;0.90;;;;;;;;;;5035502;28;20029;-84
2021/10/31 12:31:23;;;;;;;4.15;1.20;;;26.80;98.80;;;;;;5034444;28;20399;-84
2021/10/31 12:34:08;;;;;;;1.33;0.82;;;;;;;;;;5035492;28;20056;-83
2021/10/31 12:36:35;;;;;;;3.25;0.90;;;;;;;;;;5034869;28;20112;-84
2021/10/31 12:39:21;;;;;;;2.38;1.02;;;;;;;;;;5035302;28;20030;-83
2021/10/31 12:42:07;;;;;;;2.22;1.00;;;;;;;;;;5034812;28;20044;-83
2021/10/31 12:44:34;;;;;;;1.85;0.93;;;;;;;;;;5035564;28;20437;-83
2021/10/31 12:47:12;;;;;;;0.80;0.60;;;;;;;;;;5036031;28;20389;-83
2021/10/31 12:49:38;;;;;;;1.15;0.60;;;;;;;;;;5035415;28;20550;-84
2021/10/31 12:52:05;;;;;;;0.68;0.68;;;;;;;;;;5035366;28;20030;-83
2021/10/31 12:54:33;;;;;;;0.90;0.50;;;;;;;;;;5035312;28;20385;-84
2021/10/31 12:57:00;;;;;;;1.85;0.52;;;;;;;;;;5035011;28;20022;-83
2021/10/31 12:59:26;;;;;;;0.73;0.45;;;;;;;;;;5017768;28;20033;-83
2021/10/31 13:02:06;;;;;;;1.58;0.50;;;;;;;;;;5034972;28;20017;-83
2021/10/31 13:04:46;;;;;;;0.57;0.50;;;;;;;;;;5034927;28;20037;-83
2021/10/31 13:07:12;;;;;;;0.65;0.55;;;;;;;;;;5015329;28;20041;-83
2021/10/31 13:09:38;;;;;;;1.02;0.50;;;;;;;;;;5015314;28;20030;-83
2021/10/31 13:12:04;;;;;;;1.15;0.45;;;;;;;;;;5015061;28;20109;-83
2021/10/31 13:14:34;;;;;;;0.85;0.65;;;;;;;;;;5015000;28;20030;-83
2021/10/31 13:17:03;;;;;;;1.83;0.50;;;;;;;;;;5014945;28;20040;-83
2021/10/31 13:19:36;;;;;;;1.98;0.45;;;;;;;;;;5014597;28;20026;-83
2021/10/31 13:22:04;;;;;;;1.17;0.50;;;29.30;86.30;;;;;;5015884;28;20064;-83
2021/10/31 13:24:35;;;;;;;3.22;0.40;;;23.90;82.30;;;;;;5023913;28;20425;-83
2021/10/31 13:27:00;;;;;;;0.70;0.50;;;23.70;82.30;;;;;;5017629;28;20034;-83
2021/10/31 13:29:44;;;;;;;0.95;0.40;;;23.60;81.80;;;;;;5017349;28;20405;-83